Time;durP1;ratioP1;P1;durP2;ratioP2;P2;SDS_P1;SDS_P2;PMS_P1;PMS_P2;Temp;Humidity;BMP_temperature;BMP_pressure;BME280_temperature;BME280_humidity;BME280_pressure;Samples;Min_cycle;Max_cycle;Signal;HPM_P1;HPM_P2
2022/06/26 00:01:07;;;;;;;2.85;1.35;;;20.90;87.70;;;;;;5010614;28;20029;-80
2022/06/26 00:03:33;;;;;;;2.60;1.50;;;20.90;87.80;;;;;;5027152;28;20116;-80
2022/06/26 00:05:59;;;;;;;3.15;1.52;;;20.90;87.90;;;;;;5012037;28;20062;-80
2022/06/26 00:08:25;;;;;;;3.38;1.50;;;20.90;87.90;;;;;;5027521;28;20079;-79
2022/06/26 00:10:51;;;;;;;3.55;1.70;;;20.90;88.00;;;;;;5011613;28;20087;-80
2022/06/26 00:13:17;;;;;;;4.13;1.80;;;20.90;88.00;;;;;;5012214;28;20095;-80
2022/06/26 00:15:43;;;;;;;2.65;1.58;;;20.90;88.10;;;;;;4994027;28;20737;-80
2022/06/26 00:18:08;;;;;;;4.22;1.70;;;20.80;88.00;;;;;;5027016;28;20088;-79
2022/06/26 00:20:34;;;;;;;4.03;1.50;;;20.80;88.00;;;;;;5026627;28;20026;-80
2022/06/26 00:22:59;;;;;;;4.22;1.63;;;20.80;88.00;;;;;;5026738;28;20030;-81
2022/06/26 00:25:25;;;;;;;3.28;1.60;;;20.80;87.90;;;;;;5026784;28;20143;-82
2022/06/26 00:27:51;;;;;;;3.60;1.60;;;20.90;88.00;;;;;;5011512;28;20026;-79
2022/06/26 00:30:16;;;;;;;4.13;1.45;;;20.90;87.80;;;;;;5011560;28;20576;-80
2022/06/26 00:32:42;;;;;;;2.85;1.60;;;20.90;87.70;;;;;;5026423;28;20029;-80
2022/06/26 00:35:09;;;;;;;3.20;1.50;;;20.90;87.60;;;;;;5009835;28;20121;-80
2022/06/26 00:37:34;;;;;;;3.25;1.42;;;20.90;87.50;;;;;;5009564;28;20033;-80
2022/06/26 00:40:00;;;;;;;2.67;1.38;;;20.90;87.50;;;;;;5026269;28;20026;-81
2022/06/26 00:42:25;;;;;;;2.15;1.38;;;20.90;87.40;;;;;;5010644;28;20033;-79
2022/06/26 00:44:54;;;;;;;3.47;1.55;;;20.90;87.50;;;;;;5011040;28;20454;-80
2022/06/26 00:47:21;;;;;;;3.05;1.50;;;20.90;87.50;;;;;;5025868;28;20026;-80
2022/06/26 00:49:46;;;;;;;3.00;1.58;;;20.90;87.60;;;;;;5025993;28;20040;-80
2022/06/26 00:52:12;;;;;;;2.58;1.38;;;20.80;87.60;;;;;;5009155;28;20022;-80
2022/06/26 00:54:38;;;;;;;3.15;1.55;;;20.90;87.70;;;;;;5025977;28;20026;-81
2022/06/26 00:57:04;;;;;;;3.45;1.50;;;20.80;87.80;;;;;;5025441;28;20048;-80
2022/06/26 00:59:31;;;;;;;2.50;1.33;;;20.80;87.90;;;;;;5010210;28;20662;-83
2022/06/26 01:01:57;;;;;;;2.88;1.52;;;20.80;87.90;;;;;;5010172;28;20065;-80
2022/06/26 01:04:23;;;;;;;3.13;1.58;;;20.80;88.00;;;;;;5010427;28;20036;-83
2022/06/26 01:06:50;;;;;;;2.95;1.50;;;20.80;88.00;;;;;;5014391;28;20030;-81
2022/06/26 01:09:15;;;;;;;2.75;1.52;;;20.80;88.00;;;;;;5029207;28;20026;-82
2022/06/26 01:11:43;;;;;;;2.78;1.60;;;20.80;87.90;;;;;;5011906;28;20056;-82
2022/06/26 01:14:09;;;;;;;3.42;1.45;;;20.80;88.00;;;;;;4996135;28;20116;-80
2022/06/26 01:16:36;;;;;;;3.38;1.63;;;20.80;88.00;;;;;;5029049;28;20033;-81
2022/06/26 01:19:01;;;;;;;3.47;1.50;;;20.90;88.00;;;;;;5027973;28;20108;-81
2022/06/26 01:21:28;;;;;;;2.80;1.50;;;20.90;87.80;;;;;;5028105;28;20034;-81
2022/06/26 01:23:54;;;;;;;3.22;1.42;;;20.90;87.70;;;;;;5011326;28;20018;-81
2022/06/26 01:26:21;;;;;;;3.40;1.40;;;20.90;87.60;;;;;;5013170;28;20050;-81
2022/06/26 01:28:47;;;;;;;2.90;1.40;;;20.90;87.50;;;;;;5012821;28;20034;-81
2022/06/26 01:31:12;;;;;;;3.60;1.30;;;20.90;87.40;;;;;;5010591;28;20030;-83
2022/06/26 01:33:38;;;;;;;2.47;1.42;;;20.90;87.40;;;;;;5011863;28;20442;-81
2022/06/26 01:36:05;;;;;;;2.92;1.40;;;20.90;87.50;;;;;;5011228;28;20032;-81
2022/06/26 01:38:30;;;;;;;2.38;1.40;;;20.90;87.60;;;;;;5026677;28;20037;-81
2022/06/26 01:40:56;;;;;;;3.95;1.65;;;20.90;87.60;;;;;;5011634;28;20022;-81
2022/06/26 01:43:29;;;;;;;3.42;1.50;;;20.80;87.70;;;;;;4993098;28;20026;-81
2022/06/26 01:45:56;;;;;;;1.92;1.35;;;20.80;88.30;;;;;;4993234;28;20040;-82
2022/06/26 01:48:24;;;;;;;2.35;1.30;;;20.80;87.90;;;;;;4990680;28;20034;-82
2022/06/26 01:50:50;;;;;;;3.15;1.48;;;20.80;88.00;;;;;;4992207;28;20034;-82
2022/06/26 01:53:16;;;;;;;3.20;1.42;;;20.80;88.00;;;;;;4992949;28;20443;-81
2022/06/26 01:55:42;;;;;;;3.30;1.60;;;20.80;88.00;;;;;;4992905;28;20034;-82
2022/06/26 01:58:08;;;;;;;2.60;1.40;;;20.80;88.10;;;;;;4992969;28;20132;-80
2022/06/26 02:00:37;;;;;;;2.50;1.60;;;20.80;88.00;;;;;;4993141;28;20125;-81
2022/06/26 02:03:03;;;;;;;3.38;1.48;;;20.80;87.90;;;;;;4992884;28;20025;-81
2022/06/26 02:05:28;;;;;;;4.05;1.73;;;20.80;88.00;;;;;;4992928;28;20617;-80
2022/06/26 02:07:54;;;;;;;4.72;1.60;;;20.80;88.00;;;;;;5010385;28;20041;-81
2022/06/26 02:15:51;;;;;;;2.47;1.55;;;20.80;87.60;;;;;;5014735;28;20121;-80
2022/06/26 02:18:17;;;;;;;2.33;1.42;;;20.90;87.60;;;;;;4996595;28;20610;-80
2022/06/26 02:20:42;;;;;;;2.33;1.58;;;20.90;87.60;;;;;;4995989;28;20121;-80
2022/06/26 02:23:09;;;;;;;2.92;1.60;;;20.90;87.50;;;;;;4996628;28;20024;-81
2022/06/26 02:25:34;;;;;;;3.33;1.40;;;20.80;87.50;;;;;;5013853;28;20038;-80
2022/06/26 02:28:00;;;;;;;3.03;1.48;;;20.80;87.70;;;;;;4998959;28;20030;-82
2022/06/26 02:30:25;;;;;;;2.75;1.60;;;20.80;87.80;;;;;;5016406;28;20072;-81
2022/06/26 02:32:52;;;;;;;2.45;1.50;;;20.80;87.80;;;;;;4999605;28;20040;-81
2022/06/26 02:35:18;;;;;;;2.28;1.50;;;20.80;87.70;;;;;;4998643;28;20029;-81
2022/06/26 02:37:43;;;;;;;3.95;1.60;;;20.80;87.90;;;;;;4998749;28;20040;-80
2022/06/26 02:40:09;;;;;;;2.63;1.70;;;20.80;88.00;;;;;;5014386;28;20049;-81
2022/06/26 02:42:35;;;;;;;3.13;1.60;;;20.80;88.00;;;;;;4998055;28;20022;-81
2022/06/26 02:45:00;;;;;;;2.60;1.75;;;20.80;88.10;;;;;;5013406;28;20498;-81
2022/06/26 02:47:26;;;;;;;2.72;1.50;;;20.80;88.00;;;;;;5015032;28;20017;-81
2022/06/26 02:49:51;;;;;;;2.45;1.45;;;20.80;88.00;;;;;;5003699;28;20549;-81
2022/06/26 02:52:17;;;;;;;3.20;1.50;;;20.80;88.00;;;;;;4998320;28;20021;-80
2022/06/26 02:54:43;;;;;;;3.42;1.60;;;20.70;88.10;;;;;;5014932;28;20014;-82
2022/06/26 02:57:08;;;;;;;2.78;1.70;;;20.80;88.10;;;;;;5014615;28;20467;-81
2022/06/26 02:59:34;;;;;;;2.50;1.50;;;20.80;88.00;;;;;;5014517;28;20053;-80
2022/06/26 03:01:59;;;;;;;2.17;1.55;;;20.80;87.90;;;;;;5009671;28;20030;-82
2022/06/26 03:04:25;;;;;;;2.97;1.48;;;20.80;87.80;;;;;;4993586;28;20029;-80
2022/06/26 03:06:51;;;;;;;3.30;1.77;;;20.80;87.70;;;;;;4996648;28;20034;-82
2022/06/26 03:09:16;;;;;;;2.60;1.73;;;20.90;87.60;;;;;;4996519;28;20495;-81
2022/06/26 03:11:42;;;;;;;2.70;1.42;;;20.80;87.50;;;;;;4995993;28;20040;-82
2022/06/26 03:14:08;;;;;;;4.22;1.60;;;20.90;87.50;;;;;;5012422;28;20030;-80
2022/06/26 03:16:34;;;;;;;2.47;1.60;;;20.90;87.60;;;;;;5013560;28;20026;-80
2022/06/26 03:18:59;;;;;;;3.85;1.90;;;20.80;87.70;;;;;;5013722;28;20132;-81
2022/06/26 03:21:25;;;;;;;2.92;1.60;;;20.80;87.90;;;;;;5012582;28;20167;-79
2022/06/26 03:24:03;;;;;;;2.80;1.55;;;20.80;88.00;;;;;;4995475;28;20494;-80
2022/06/26 03:26:30;;;;;;;2.17;1.45;;;20.80;88.00;;;;;;5013373;28;20018;-80
2022/06/26 03:28:55;;;;;;;1.88;1.40;;;20.80;88.10;;;;;;4995497;28;20096;-80
2022/06/26 03:31:21;;;;;;;3.92;1.73;;;20.80;88.20;;;;;;5013102;28;20491;-82
2022/06/26 03:33:47;;;;;;;2.30;1.70;;;20.70;88.10;;;;;;4995214;28;20117;-80
2022/06/26 03:36:12;;;;;;;2.60;1.45;;;20.70;88.10;;;;;;5013199;28;20118;-80
2022/06/26 03:38:39;;;;;;;3.38;1.65;;;20.80;88.10;;;;;;4994715;28;20030;-80
2022/06/26 03:41:04;;;;;;;3.38;1.60;;;20.70;88.00;;;;;;5007527;28;20027;-83
2022/06/26 03:43:30;;;;;;;3.08;1.42;;;20.70;88.00;;;;;;4994062;28;20020;-82
2022/06/26 03:45:55;;;;;;;2.45;1.50;;;20.80;88.20;;;;;;4994748;28;20034;-80
2022/06/26 03:48:21;;;;;;;3.00;1.45;;;20.80;88.10;;;;;;4994541;28;20495;-80
2022/06/26 03:50:46;;;;;;;2.08;1.40;;;20.80;88.00;;;;;;4991535;28;20034;-81
2022/06/26 03:53:12;;;;;;;2.53;1.55;;;20.80;87.90;;;;;;5009079;28;20030;-80
2022/06/26 03:55:37;;;;;;;2.55;1.55;;;20.80;87.80;;;;;;4994415;28;20117;-80
2022/06/26 03:58:04;;;;;;;3.03;1.40;;;20.90;87.70;;;;;;5012400;28;20109;-81
2022/06/26 04:00:30;;;;;;;2.92;1.67;;;20.90;88.10;;;;;;5011484;28;20830;-81
2022/06/26 04:02:56;;;;;;;2.95;1.73;;;20.90;87.50;;;;;;4999714;28;20034;-83
2022/06/26 04:05:22;;;;;;;2.50;1.40;;;20.90;87.40;;;;;;5012899;28;20057;-80
2022/06/26 04:07:47;;;;;;;2.92;1.60;;;20.80;87.50;;;;;;5012900;28;20077;-83
2022/06/26 04:10:13;;;;;;;3.15;1.75;;;20.80;87.80;;;;;;5012802;28;20041;-80
2022/06/26 04:12:38;;;;;;;2.63;1.55;;;20.80;87.90;;;;;;4994560;28;20084;-80
2022/06/26 04:15:05;;;;;;;3.22;1.70;;;20.80;87.90;;;;;;5010949;28;20044;-81
2022/06/26 04:17:30;;;;;;;2.50;1.65;;;20.80;88.00;;;;;;5012014;28;20026;-81
2022/06/26 04:19:56;;;;;;;2.72;1.58;;;20.80;88.00;;;;;;4994131;28;20403;-80
2022/06/26 04:22:22;;;;;;;3.08;1.80;;;20.70;88.00;;;;;;4992814;28;20410;-80
2022/06/26 04:24:47;;;;;;;2.65;1.70;;;20.80;88.10;;;;;;4998244;28;20033;-82
2022/06/26 04:27:13;;;;;;;2.70;1.45;;;20.70;88.10;;;;;;5014821;28;20109;-82
2022/06/26 04:29:39;;;;;;;1.70;1.35;;;20.70;88.00;;;;;;4996700;28;20406;-81
2022/06/26 04:32:04;;;;;;;2.92;1.65;;;20.80;88.10;;;;;;4995988;28;20054;-80
2022/06/26 04:34:30;;;;;;;2.20;1.40;;;20.80;88.10;;;;;;5013752;28;20018;-82
2022/06/26 04:36:55;;;;;;;2.85;1.60;;;20.70;88.10;;;;;;4996592;28;20419;-81
2022/06/26 04:39:21;;;;;;;2.25;1.60;;;20.80;88.00;;;;;;4995932;28;20069;-82
2022/06/26 04:41:47;;;;;;;2.80;1.77;;;20.80;87.90;;;;;;5013437;28;20380;-81
2022/06/26 04:44:13;;;;;;;2.65;1.50;;;20.80;88.30;;;;;;4992020;28;20037;-82
2022/06/26 04:46:42;;;;;;;2.10;1.55;;;20.90;87.70;;;;;;4993883;28;20022;-81
2022/06/26 04:49:08;;;;;;;2.20;1.50;;;20.90;87.50;;;;;;5011182;28;20021;-82
2022/06/26 04:51:37;;;;;;;3.35;1.70;;;20.90;87.50;;;;;;4994955;28;20487;-81
2022/06/26 04:54:04;;;;;;;2.33;1.67;;;20.90;87.40;;;;;;5013324;28;20079;-81
2022/06/26 04:56:30;;;;;;;2.67;1.40;;;20.90;87.40;;;;;;5024038;28;20030;-80
2022/06/26 04:58:56;;;;;;;2.47;1.67;;;20.90;87.50;;;;;;5011856;28;20032;-80
2022/06/26 05:01:23;;;;;;;2.70;1.50;;;20.90;87.60;;;;;;4995473;28;20072;-81
2022/06/26 05:03:48;;;;;;;2.55;1.70;;;20.80;87.70;;;;;;5008196;28;20570;-81
2022/06/26 05:06:14;;;;;;;2.35;1.48;;;20.80;87.80;;;;;;5024841;28;20104;-82
2022/06/26 05:08:40;;;;;;;2.53;1.70;;;20.80;87.90;;;;;;5033523;28;20036;-80
2022/06/26 05:11:05;;;;;;;2.30;1.60;;;20.80;87.90;;;;;;5014705;28;20037;-80
2022/06/26 05:13:31;;;;;;;2.33;1.60;;;20.80;88.00;;;;;;5012267;28;20030;-81
2022/06/26 05:15:57;;;;;;;3.00;1.70;;;20.80;88.00;;;;;;5014316;28;20518;-81
2022/06/26 05:18:23;;;;;;;3.78;1.80;;;20.80;88.00;;;;;;5013166;28;20058;-80
2022/06/26 05:20:49;;;;;;;2.50;1.48;;;20.80;88.00;;;;;;5012358;28;20022;-80
2022/06/26 05:23:14;;;;;;;3.20;1.50;;;20.80;88.00;;;;;;5014098;28;20049;-80
2022/06/26 05:25:41;;;;;;;1.85;1.35;;;20.80;87.90;;;;;;5012619;28;20026;-82
2022/06/26 05:28:06;;;;;;;3.20;1.77;;;20.80;88.00;;;;;;5013282;28;20026;-80
2022/06/26 05:30:32;;;;;;;2.55;1.77;;;20.80;87.90;;;;;;5011987;28;20099;-81
2022/06/26 05:32:58;;;;;;;2.60;1.73;;;20.80;87.90;;;;;;5012072;28;20030;-81
2022/06/26 05:35:23;;;;;;;2.53;1.67;;;20.80;87.70;;;;;;5012094;28;20030;-81
2022/06/26 05:37:49;;;;;;;2.78;1.70;;;20.90;87.70;;;;;;5011662;28;20777;-81
2022/06/26 05:40:14;;;;;;;2.33;1.40;;;20.90;87.50;;;;;;5021192;28;20026;-80
2022/06/26 05:42:40;;;;;;;2.90;1.52;;;20.80;87.30;;;;;;5012098;28;20025;-80
2022/06/26 05:45:06;;;;;;;2.03;1.50;;;20.90;87.40;;;;;;5021918;28;20033;-81
2022/06/26 05:47:32;;;;;;;2.22;1.50;;;20.90;87.40;;;;;;5003450;28;20084;-81
2022/06/26 05:49:57;;;;;;;2.80;1.67;;;20.90;88.00;;;;;;5014818;28;20030;-83
2022/06/26 05:52:22;;;;;;;3.88;1.70;;;20.90;87.40;;;;;;5033358;28;20046;-83
2022/06/26 05:54:48;;;;;;;3.53;2.20;;;20.90;87.40;;;;;;5014859;28;20030;-82
2022/06/26 05:57:14;;;;;;;2.88;1.85;;;20.90;87.70;;;;;;4998111;28;20030;-81
2022/06/26 05:59:39;;;;;;;2.90;1.80;;;20.90;87.70;;;;;;5010806;28;20026;-81
2022/06/26 06:02:05;;;;;;;1.95;1.60;;;20.90;87.80;;;;;;5009767;28;20026;-83
2022/06/26 06:04:31;;;;;;;3.10;1.80;;;20.90;87.70;;;;;;5013430;28;20438;-82
2022/06/26 06:06:56;;;;;;;2.33;1.70;;;20.90;87.80;;;;;;4997215;28;20028;-82
2022/06/26 06:09:22;;;;;;;2.88;1.73;;;20.80;87.70;;;;;;4996551;28;20025;-82
2022/06/26 06:11:47;;;;;;;3.47;2.00;;;20.90;87.60;;;;;;4997118;28;20021;-82
2022/06/26 06:14:13;;;;;;;2.30;1.50;;;20.90;87.70;;;;;;5013701;28;20035;-81
2022/06/26 06:16:38;;;;;;;3.90;1.85;;;20.90;87.60;;;;;;4996997;28;20032;-81
2022/06/26 06:19:04;;;;;;;3.75;1.60;;;20.80;87.70;;;;;;5011924;28;20132;-83
2022/06/26 06:21:29;;;;;;;2.22;1.60;;;20.90;87.70;;;;;;5009825;28;20049;-83
2022/06/26 06:23:55;;;;;;;2.40;1.50;;;20.90;87.50;;;;;;4994432;28;20028;-82
2022/06/26 06:26:20;;;;;;;2.28;1.50;;;20.90;87.40;;;;;;5013537;28;20045;-82
2022/06/26 06:28:46;;;;;;;2.88;1.70;;;20.90;87.20;;;;;;5011905;28;20022;-81
2022/06/26 06:31:11;;;;;;;2.30;1.67;;;21.00;87.10;;;;;;5012482;28;20030;-82
2022/06/26 06:33:37;;;;;;;2.63;1.60;;;21.00;87.00;;;;;;4995735;28;20029;-81
2022/06/26 06:36:03;;;;;;;2.47;1.73;;;21.00;86.80;;;;;;4995228;28;20053;-81
2022/06/26 06:38:28;;;;;;;2.33;1.60;;;21.00;86.80;;;;;;4994217;28;20038;-77
2022/06/26 06:40:54;;;;;;;3.13;1.70;;;21.00;86.80;;;;;;5010911;28;20577;-83
2022/06/26 06:43:19;;;;;;;2.65;1.73;;;21.00;86.90;;;;;;5010313;28;20129;-81
2022/06/26 06:45:45;;;;;;;1.70;1.50;;;21.00;86.90;;;;;;4996110;28;20038;-81
2022/06/26 06:48:10;;;;;;;2.10;1.60;;;21.00;86.90;;;;;;5017654;28;20041;-82
2022/06/26 06:50:36;;;;;;;3.00;1.80;;;21.00;86.80;;;;;;5010934;28;20549;-81
2022/06/26 06:53:02;;;;;;;2.92;1.80;;;21.00;86.90;;;;;;4993643;28;20026;-80
2022/06/26 06:55:28;;;;;;;2.25;1.65;;;21.00;86.90;;;;;;4994523;28;20026;-80
2022/06/26 06:57:53;;;;;;;3.47;1.70;;;21.00;86.90;;;;;;5013683;28;20036;-80
2022/06/26 07:00:19;;;;;;;2.85;1.75;;;21.00;86.90;;;;;;5013722;28;20743;-78
2022/06/26 07:02:44;;;;;;;3.05;1.90;;;21.00;86.90;;;;;;4989509;28;20022;-80
2022/06/26 07:05:10;;;;;;;3.15;1.77;;;21.00;86.90;;;;;;4995396;28;20503;-80
2022/06/26 07:07:36;;;;;;;2.55;1.70;;;21.00;86.90;;;;;;4993276;28;20483;-82
2022/06/26 07:10:02;;;;;;;2.47;1.75;;;21.00;86.90;;;;;;5017072;28;20022;-80
2022/06/26 07:12:28;;;;;;;2.50;1.60;;;21.10;86.90;;;;;;5014590;28;20458;-80
2022/06/26 07:14:53;;;;;;;2.47;1.60;;;21.10;86.70;;;;;;5014430;28;20177;-81
2022/06/26 07:17:21;;;;;;;3.17;1.70;;;21.20;86.60;;;;;;4995251;28;20029;-80
2022/06/26 07:19:47;;;;;;;2.20;1.60;;;21.20;86.30;;;;;;4994966;28;20159;-81
2022/06/26 07:22:13;;;;;;;2.60;1.80;;;21.20;86.10;;;;;;4994254;28;20057;-81
2022/06/26 07:24:39;;;;;;;3.03;1.90;;;21.20;86.00;;;;;;4994717;28;20018;-80
2022/06/26 07:27:05;;;;;;;3.42;1.80;;;21.20;86.00;;;;;;5010789;28;20034;-78
2022/06/26 07:29:31;;;;;;;2.55;1.70;;;21.20;86.00;;;;;;5007044;28;20083;-80
2022/06/26 07:31:56;;;;;;;2.75;1.80;;;21.20;86.00;;;;;;5011782;28;20034;-79
2022/06/26 07:34:23;;;;;;;3.35;1.95;;;21.20;86.00;;;;;;5011040;28;20026;-79
2022/06/26 07:36:50;;;;;;;2.97;1.80;;;21.20;86.10;;;;;;5012186;28;20041;-78
2022/06/26 07:39:19;;;;;;;3.55;1.98;;;21.20;86.00;;;;;;5012166;28;20442;-80
2022/06/26 07:41:46;;;;;;;2.67;1.70;;;21.20;86.00;;;;;;5011301;28;20052;-83
2022/06/26 07:44:12;;;;;;;2.63;2.00;;;21.20;85.80;;;;;;5016452;28;20052;-81
2022/06/26 07:46:38;;;;;;;3.33;2.10;;;21.30;85.90;;;;;;5015062;28;20108;-82
2022/06/26 07:49:05;;;;;;;2.38;1.80;;;21.20;85.90;;;;;;5015861;28;20085;-81
2022/06/26 07:51:32;;;;;;;3.28;2.10;;;21.20;85.90;;;;;;5012173;28;20542;-82
2022/06/26 07:53:58;;;;;;;3.50;2.10;;;21.30;86.00;;;;;;4997720;28;20072;-81
2022/06/26 07:56:25;;;;;;;2.90;1.98;;;21.20;85.90;;;;;;4997572;28;20097;-81
2022/06/26 07:58:55;;;;;;;3.45;2.10;;;21.30;85.90;;;;;;4996779;28;20092;-83
2022/06/26 08:01:21;;;;;;;3.20;2.20;;;21.30;85.90;;;;;;5016054;28;20045;-82
2022/06/26 08:03:46;;;;;;;3.25;2.05;;;21.30;85.90;;;;;;4995412;28;20026;-82
2022/06/26 08:06:12;;;;;;;3.30;2.03;;;21.30;85.70;;;;;;5015767;28;20040;-81
2022/06/26 08:08:38;;;;;;;3.47;2.10;;;21.40;85.50;;;;;;4994240;28;20377;-81
2022/06/26 08:11:04;;;;;;;3.47;2.25;;;21.50;85.40;;;;;;5010833;28;20026;-83
2022/06/26 08:13:30;;;;;;;2.80;1.90;;;21.50;85.10;;;;;;5010704;28;20034;-82
2022/06/26 08:15:55;;;;;;;4.05;2.17;;;21.50;85.10;;;;;;4993673;28;20085;-82
2022/06/26 08:18:21;;;;;;;3.80;2.10;;;21.50;85.10;;;;;;5009867;28;20034;-82
2022/06/26 08:20:46;;;;;;;17.95;3.20;;;21.50;85.10;;;;;;4994392;28;20041;-82
2022/06/26 08:23:12;;;;;;;34.85;3.72;;;21.40;85.00;;;;;;4993938;28;20091;-81
2022/06/26 08:25:38;;;;;;;42.10;4.18;;;21.40;85.10;;;;;;5001469;28;20119;-81
2022/06/26 08:28:04;;;;;;;32.63;3.88;;;21.40;85.10;;;;;;5013186;28;20025;-81
2022/06/26 08:30:30;;;;;;;36.90;4.90;;;21.40;85.00;;;;;;4995106;28;20498;-81
2022/06/26 08:32:58;;;;;;;36.40;4.93;;;21.40;85.10;;;;;;4991640;28;20069;-81
2022/06/26 08:35:25;;;;;;;26.92;5.00;;;21.40;85.20;;;;;;4993129;28;20057;-81
2022/06/26 08:37:51;;;;;;;36.10;5.25;;;21.40;85.40;;;;;;4975828;28;20042;-80
2022/06/26 08:40:16;;;;;;;29.90;5.00;;;21.40;85.60;;;;;;4975347;28;20133;-81
2022/06/26 08:42:44;;;;;;;23.23;4.07;;;21.30;85.70;;;;;;4991421;28;20064;-81
2022/06/26 08:45:10;;;;;;;28.25;4.90;;;21.30;85.80;;;;;;4992094;28;20048;-80
2022/06/26 08:47:39;;;;;;;20.40;3.60;;;21.30;86.00;;;;;;4993950;28;20490;-81
2022/06/26 08:50:06;;;;;;;21.10;4.05;;;21.30;86.10;;;;;;5011098;28;20030;-81
2022/06/26 08:52:33;;;;;;;20.80;3.58;;;21.20;86.10;;;;;;5010715;28;20037;-80
2022/06/26 08:55:00;;;;;;;23.30;4.38;;;21.30;86.20;;;;;;5009172;28;20025;-79
2022/06/26 08:57:26;;;;;;;19.50;3.40;;;21.30;86.00;;;;;;5009620;28;20018;-80
2022/06/26 08:59:51;;;;;;;21.10;3.35;;;21.30;85.90;;;;;;5025392;28;20298;-81
2022/06/26 09:02:17;;;;;;;19.85;3.58;;;21.30;86.30;;;;;;5010855;28;20025;-82
2022/06/26 09:04:42;;;;;;;15.95;3.53;;;21.30;85.70;;;;;;5014064;28;20475;-80
2022/06/26 09:07:09;;;;;;;18.70;3.17;;;21.30;85.90;;;;;;5013925;28;20041;-82
2022/06/26 09:09:39;;;;;;;14.50;3.42;;;21.30;85.70;;;;;;5025413;28;20033;-80
2022/06/26 09:12:05;;;;;;;20.08;3.50;;;21.30;85.70;;;;;;4996005;28;20034;-80
2022/06/26 09:14:31;;;;;;;19.08;3.75;;;21.30;85.80;;;;;;4995965;28;20038;-79
2022/06/26 09:16:58;;;;;;;14.95;3.40;;;21.30;85.80;;;;;;5012650;28;20049;-79
2022/06/26 09:19:33;;;;;;;14.45;3.40;;;21.30;85.70;;;;;;5013342;28;20773;-82
2022/06/26 09:22:10;;;;;;;12.93;3.40;;;21.30;85.70;;;;;;5012038;28;20018;-81
2022/06/26 09:24:38;;;;;;;18.60;3.70;;;21.30;85.70;;;;;;5012847;28;20026;-78
2022/06/26 09:27:16;;;;;;;12.70;3.47;;;21.30;85.70;;;;;;4995217;28;20097;-81
2022/06/26 09:29:50;;;;;;;13.20;3.30;;;21.30;85.80;;;;;;5013346;28;20608;-81
2022/06/26 09:32:16;;;;;;;10.45;2.83;;;21.30;85.80;;;;;;5012586;28;20565;-81
2022/06/26 09:34:47;;;;;;;11.65;2.97;;;21.30;85.80;;;;;;4994673;28;20045;-82
2022/06/26 09:37:13;;;;;;;18.13;3.57;;;21.30;85.70;;;;;;5012458;28;20033;-81
2022/06/26 09:39:38;;;;;;;12.27;3.50;;;21.30;85.70;;;;;;5012159;28;20117;-81
2022/06/26 09:42:19;;;;;;;10.60;3.17;;;21.30;85.80;;;;;;4994547;28;20022;-78
2022/06/26 09:44:50;;;;;;;10.48;2.90;;;21.30;85.70;;;;;;4993640;28;20113;-81
2022/06/26 09:47:27;;;;;;;11.35;3.00;;;21.40;85.60;;;;;;4994281;28;20030;-81
2022/06/26 09:49:56;;;;;;;11.02;3.25;;;21.40;85.60;;;;;;4993211;28;20037;-81
2022/06/26 09:52:24;;;;;;;11.23;2.85;;;21.40;85.40;;;;;;5010255;28;20041;-81
2022/06/26 09:54:51;;;;;;;8.27;2.80;;;21.40;85.30;;;;;;4992451;28;20137;-80
2022/06/26 09:57:17;;;;;;;10.98;2.97;;;21.50;85.30;;;;;;5010352;28;20109;-81
2022/06/26 09:59:43;;;;;;;8.70;3.08;;;21.40;85.20;;;;;;4992331;28;20112;-80
2022/06/26 10:07:53;;;;;;;10.15;2.85;;;21.50;85.10;;;;;;5010282;28;20036;-80
2022/06/26 10:10:24;;;;;;;7.63;2.53;;;21.50;85.00;;;;;;4993642;28;20037;-82
2022/06/26 10:12:54;;;;;;;11.70;3.38;;;21.50;84.90;;;;;;4991441;28;20038;-82
2022/06/26 10:15:24;;;;;;;8.35;2.55;;;21.50;85.00;;;;;;4994578;28;20022;-81
2022/06/26 10:18:13;;;;;;;14.93;3.08;;;21.50;85.00;;;;;;4994237;28;20026;-81
2022/06/26 10:20:41;;;;;;;8.68;2.70;;;21.50;85.20;;;;;;4992123;28;20033;-81
2022/06/26 10:23:06;;;;;;;10.68;2.75;;;21.50;85.30;;;;;;4973942;28;20023;-80
2022/06/26 10:25:32;;;;;;;6.75;2.83;;;21.50;85.30;;;;;;4998036;28;20034;-81
2022/06/26 10:27:58;;;;;;;9.25;2.80;;;21.50;85.30;;;;;;5006347;28;20034;-80
2022/06/26 10:30:31;;;;;;;9.85;2.83;;;21.50;85.30;;;;;;4978106;28;20023;-82
2022/06/26 10:33:14;;;;;;;9.07;2.85;;;21.50;85.30;;;;;;4994209;28;20026;-81
2022/06/26 10:35:46;;;;;;;6.85;3.00;;;21.50;85.30;;;;;;5002010;28;20049;-81
2022/06/26 10:38:21;;;;;;;7.97;2.70;;;21.50;85.20;;;;;;4992510;28;20120;-80
2022/06/26 10:43:56;;;;;;;9.63;2.72;;;21.60;84.90;;;;;;4994459;28;20435;-82
2022/06/26 10:46:22;;;;;;;5.55;2.58;;;21.60;84.70;;;;;;4976326;28;20537;-80
2022/06/26 10:48:53;;;;;;;6.13;2.63;;;21.60;84.60;;;;;;5008927;28;20124;-81
2022/06/26 10:51:29;;;;;;;6.53;2.50;;;21.60;84.60;;;;;;4976133;28;20027;-80
2022/06/26 10:53:54;;;;;;;7.40;3.00;;;21.60;84.60;;;;;;5020216;28;20049;-80
2022/06/26 10:56:20;;;;;;;8.05;3.03;;;21.60;84.70;;;;;;4995159;28;20029;-82
2022/06/26 10:58:48;;;;;;;6.30;2.63;;;21.60;84.70;;;;;;4998169;28;20064;-81
2022/06/26 11:01:16;;;;;;;7.30;3.05;;;21.60;84.80;;;;;;4997870;28;20578;-83
2022/06/26 11:03:42;;;;;;;6.25;2.60;;;21.50;84.90;;;;;;4997835;28;20040;-81
2022/06/26 11:06:10;;;;;;;6.05;2.50;;;21.50;85.00;;;;;;5015132;28;20041;-81
2022/06/26 11:08:36;;;;;;;6.53;2.75;;;21.50;85.20;;;;;;4998350;28;20486;-81
2022/06/26 11:11:14;;;;;;;5.88;2.50;;;21.50;85.20;;;;;;4997804;28;20125;-80
2022/06/26 11:13:55;;;;;;;6.55;2.70;;;21.50;85.30;;;;;;4996744;28;20515;-81
2022/06/26 11:16:32;;;;;;;5.70;2.50;;;21.50;85.30;;;;;;4996190;28;20040;-81
2022/06/26 11:18:59;;;;;;;7.38;2.40;;;21.50;85.30;;;;;;4996613;28;20033;-82
2022/06/26 11:21:26;;;;;;;9.10;2.90;;;21.50;85.30;;;;;;5013519;28;20212;-83
2022/06/26 11:23:52;;;;;;;6.60;2.60;;;21.60;85.30;;;;;;4996194;28;20061;-82
2022/06/26 11:26:20;;;;;;;5.95;2.50;;;21.60;85.10;;;;;;5014281;28;20514;-81
2022/06/26 11:29:03;;;;;;;8.13;2.78;;;21.60;84.90;;;;;;5013953;28;20061;-81
2022/06/26 11:31:31;;;;;;;8.23;2.80;;;21.60;84.70;;;;;;4995532;28;20036;-81
2022/06/26 11:34:11;;;;;;;6.25;2.58;;;21.70;84.50;;;;;;4995542;28;20030;-81
2022/06/26 11:36:54;;;;;;;6.05;2.65;;;21.70;84.40;;;;;;5013195;28;20030;-81
2022/06/26 11:39:20;;;;;;;6.78;2.85;;;21.70;84.30;;;;;;5013691;28;20034;-80
2022/06/26 11:41:46;;;;;;;5.20;2.85;;;21.70;84.30;;;;;;5012685;28;20052;-80
2022/06/26 11:44:13;;;;;;;6.90;2.80;;;21.70;84.30;;;;;;4994788;28;20034;-82
2022/06/26 11:46:38;;;;;;;6.57;2.80;;;21.70;84.50;;;;;;5012981;28;20030;-83
2022/06/26 11:49:04;;;;;;;5.63;2.75;;;21.60;84.60;;;;;;5012861;28;20030;-81
2022/06/26 11:51:31;;;;;;;5.00;2.53;;;21.60;84.70;;;;;;4994670;28;21032;-80
2022/06/26 11:53:57;;;;;;;5.72;2.70;;;21.60;84.80;;;;;;4994824;28;20060;-81
2022/06/26 11:56:27;;;;;;;6.63;2.83;;;21.60;85.00;;;;;;4994159;28;20065;-83
2022/06/26 11:58:58;;;;;;;7.10;3.20;;;21.50;85.10;;;;;;4994474;28;20022;-83
2022/06/26 12:01:32;;;;;;;7.85;3.13;;;21.50;85.30;;;;;;5025419;28;20981;-82
2022/06/26 12:03:58;;;;;;;6.70;2.70;;;21.50;85.40;;;;;;4999988;28;20096;-81
2022/06/26 12:06:29;;;;;;;6.88;3.10;;;21.50;85.60;;;;;;4996799;28;20129;-81
2022/06/26 12:08:56;;;;;;;6.05;2.90;;;21.50;85.70;;;;;;5015945;28;20041;-82
2022/06/26 12:11:22;;;;;;;6.90;3.33;;;21.40;85.80;;;;;;4995723;28;20681;-81
2022/06/26 12:13:48;;;;;;;7.65;3.00;;;21.40;85.90;;;;;;5015024;28;20049;-82
2022/06/26 12:16:14;;;;;;;5.18;3.08;;;21.40;85.90;;;;;;5000816;28;20038;-81
2022/06/26 12:18:41;;;;;;;6.85;3.40;;;21.40;85.80;;;;;;4997068;28;20048;-81
2022/06/26 12:21:20;;;;;;;5.97;3.20;;;21.50;85.70;;;;;;4996284;28;20681;-80
2022/06/26 12:23:47;;;;;;;7.03;2.80;;;21.50;85.70;;;;;;4996294;28;20040;-82
2022/06/26 12:26:19;;;;;;;5.68;3.17;;;21.50;85.60;;;;;;5013596;28;20017;-81
2022/06/26 12:28:47;;;;;;;;;;;21.50;85.60;;;;;;5001769;28;20080;-81
2022/06/26 12:31:14;;;;;;;6.38;3.15;;;21.40;85.60;;;;;;4994689;28;20024;-82
2022/06/26 12:33:40;;;;;;;5.15;3.00;;;21.40;85.70;;;;;;4991914;28;20507;-82
2022/06/26 12:36:05;;;;;;;6.13;3.20;;;21.40;85.80;;;;;;4991643;28;20081;-82
2022/06/26 12:38:34;;;;;;;6.57;2.72;;;21.40;85.80;;;;;;4975345;28;20424;-81
2022/06/26 12:41:04;;;;;;;5.63;3.15;;;21.40;85.70;;;;;;4994233;28;20026;-82
2022/06/26 12:43:30;;;;;;;6.75;3.25;;;21.40;85.80;;;;;;5027462;28;20113;-80
2022/06/26 12:45:56;;;;;;;4.90;3.10;;;21.40;86.00;;;;;;5012806;28;20049;-81
2022/06/26 12:48:22;;;;;;;6.43;3.30;;;21.40;86.00;;;;;;5012452;28;20107;-82
2022/06/26 12:50:47;;;;;;;6.55;3.30;;;21.40;86.10;;;;;;5011266;28;20076;-83
2022/06/26 12:53:13;;;;;;;6.18;3.20;;;21.20;86.10;;;;;;5009711;28;20514;-80
2022/06/26 12:55:38;;;;;;;6.28;3.38;;;21.40;86.30;;;;;;5007943;28;20036;-81
2022/06/26 12:58:04;;;;;;;7.25;3.33;;;21.30;86.30;;;;;;5009871;28;20080;-80